sensor_id;sensor_type;location;lat;lon;timestamp;temperature;humidity
318;DHT22;146;53.448;10.228;2023-08-30T00:01:18;15.50;1.00
318;DHT22;146;53.448;10.228;2023-08-30T00:03:49;15.50;1.00
318;DHT22;146;53.448;10.228;2023-08-30T00:06:16;15.50;1.00
318;DHT22;146;53.448;10.228;2023-08-30T00:08:42;15.50;1.00
318;DHT22;146;53.448;10.228;2023-08-30T00:11:14;15.50;1.00
318;DHT22;146;53.448;10.228;2023-08-30T00:13:43;15.50;1.00
318;DHT22;146;53.448;10.228;2023-08-30T00:16:16;15.50;1.00
318;DHT22;146;53.448;10.228;2023-08-30T00:18:49;15.50;1.00
318;DHT22;146;53.448;10.228;2023-08-30T00:21:16;15.50;1.00
318;DHT22;146;53.448;10.228;2023-08-30T00:23:49;15.50;1.00
318;DHT22;146;53.448;10.228;2023-08-30T00:26:19;15.50;1.00
318;DHT22;146;53.448;10.228;2023-08-30T00:28:48;15.50;1.00
318;DHT22;146;53.448;10.228;2023-08-30T00:31:15;15.40;1.00
318;DHT22;146;53.448;10.228;2023-08-30T00:33:42;15.40;1.00
318;DHT22;146;53.448;10.228;2023-08-30T00:36:13;15.40;1.00
318;DHT22;146;53.448;10.228;2023-08-30T00:38:39;15.40;1.00
318;DHT22;146;53.448;10.228;2023-08-30T00:41:09;15.30;1.00
318;DHT22;146;53.448;10.228;2023-08-30T00:43:41;15.40;1.00
318;DHT22;146;53.448;10.228;2023-08-30T00:46:11;15.40;1.00
318;DHT22;146;53.448;10.228;2023-08-30T00:48:39;15.30;1.00
318;DHT22;146;53.448;10.228;2023-08-30T00:51:06;15.30;1.00
318;DHT22;146;53.448;10.228;2023-08-30T00:53:44;15.30;1.00
318;DHT22;146;53.448;10.228;2023-08-30T00:56:14;15.30;1.00
318;DHT22;146;53.448;10.228;2023-08-30T00:58:41;15.20;1.00
318;DHT22;146;53.448;10.228;2023-08-30T01:01:15;15.30;1.00
318;DHT22;146;53.448;10.228;2023-08-30T01:03:42;15.20;1.00
318;DHT22;146;53.448;10.228;2023-08-30T01:06:11;15.20;1.00
318;DHT22;146;53.448;10.228;2023-08-30T01:08:46;15.20;1.00
318;DHT22;146;53.448;10.228;2023-08-30T01:11:16;15.10;1.00
318;DHT22;146;53.448;10.228;2023-08-30T01:13:58;15.00;1.00
318;DHT22;146;53.448;10.228;2023-08-30T01:16:30;15.10;1.00
318;DHT22;146;53.448;10.228;2023-08-30T01:18:59;15.10;1.00
318;DHT22;146;53.448;10.228;2023-08-30T01:21:47;15.10;1.00
318;DHT22;146;53.448;10.228;2023-08-30T01:24:28;15.10;1.00
318;DHT22;146;53.448;10.228;2023-08-30T01:27:11;15.10;1.00
318;DHT22;146;53.448;10.228;2023-08-30T01:29:44;15.10;1.00
318;DHT22;146;53.448;10.228;2023-08-30T01:32:14;15.00;1.00
318;DHT22;146;53.448;10.228;2023-08-30T01:34:48;15.00;1.00
318;DHT22;146;53.448;10.228;2023-08-30T01:37:31;15.00;1.00
318;DHT22;146;53.448;10.228;2023-08-30T01:39:59;14.90;1.00
318;DHT22;146;53.448;10.228;2023-08-30T01:42:32;14.90;1.00
318;DHT22;146;53.448;10.228;2023-08-30T01:45:00;14.90;1.00
318;DHT22;146;53.448;10.228;2023-08-30T01:47:35;14.80;1.00
318;DHT22;146;53.448;10.228;2023-08-30T01:50:02;14.80;1.00
318;DHT22;146;53.448;10.228;2023-08-30T01:52:30;14.80;1.00
318;DHT22;146;53.448;10.228;2023-08-30T01:55:05;14.70;1.00
318;DHT22;146;53.448;10.228;2023-08-30T01:57:40;14.60;1.00
318;DHT22;146;53.448;10.228;2023-08-30T02:00:10;14.60;1.00
318;DHT22;146;53.448;10.228;2023-08-30T02:02:37;14.60;1.00
318;DHT22;146;53.448;10.228;2023-08-30T02:05:06;14.60;1.00
318;DHT22;146;53.448;10.228;2023-08-30T02:07:37;14.60;1.00
318;DHT22;146;53.448;10.228;2023-08-30T02:10:09;14.50;1.00
318;DHT22;146;53.448;10.228;2023-08-30T02:12:47;14.50;1.00
318;DHT22;146;53.448;10.228;2023-08-30T02:15:17;14.50;1.00
318;DHT22;146;53.448;10.228;2023-08-30T02:17:45;14.40;1.00
318;DHT22;146;53.448;10.228;2023-08-30T02:20:13;14.30;1.00
318;DHT22;146;53.448;10.228;2023-08-30T02:22:40;14.30;1.00
318;DHT22;146;53.448;10.228;2023-08-30T02:25:07;14.20;1.00
318;DHT22;146;53.448;10.228;2023-08-30T02:27:35;14.30;1.00
318;DHT22;146;53.448;10.228;2023-08-30T02:30:05;14.20;1.00
318;DHT22;146;53.448;10.228;2023-08-30T02:32:41;14.20;1.00
318;DHT22;146;53.448;10.228;2023-08-30T02:35:09;14.30;1.00
318;DHT22;146;53.448;10.228;2023-08-30T02:37:42;14.30;1.00
318;DHT22;146;53.448;10.228;2023-08-30T02:40:10;14.30;1.00
318;DHT22;146;53.448;10.228;2023-08-30T02:42:37;14.20;1.00
318;DHT22;146;53.448;10.228;2023-08-30T02:45:06;14.20;1.00
318;DHT22;146;53.448;10.228;2023-08-30T02:47:33;14.30;1.00
318;DHT22;146;53.448;10.228;2023-08-30T02:50:15;14.30;1.00
318;DHT22;146;53.448;10.228;2023-08-30T02:52:48;14.40;1.00
318;DHT22;146;53.448;10.228;2023-08-30T02:55:23;14.40;1.00
318;DHT22;146;53.448;10.228;2023-08-30T02:57:53;14.30;1.00
318;DHT22;146;53.448;10.228;2023-08-30T03:00:30;14.30;1.00
318;DHT22;146;53.448;10.228;2023-08-30T03:02:57;14.20;1.00
318;DHT22;146;53.448;10.228;2023-08-30T03:05:24;14.20;1.00
318;DHT22;146;53.448;10.228;2023-08-30T03:07:59;14.20;1.00
318;DHT22;146;53.448;10.228;2023-08-30T03:10:26;14.10;1.00
318;DHT22;146;53.448;10.228;2023-08-30T03:13:05;14.20;1.00
318;DHT22;146;53.448;10.228;2023-08-30T03:15:33;14.10;1.00
318;DHT22;146;53.448;10.228;2023-08-30T03:18:00;14.10;1.00
318;DHT22;146;53.448;10.228;2023-08-30T03:20:33;14.10;1.00
318;DHT22;146;53.448;10.228;2023-08-30T03:22:59;14.10;1.00
318;DHT22;146;53.448;10.228;2023-08-30T03:25:31;14.20;1.00
318;DHT22;146;53.448;10.228;2023-08-30T03:28:09;14.10;1.00
318;DHT22;146;53.448;10.228;2023-08-30T03:30:43;14.10;1.00
318;DHT22;146;53.448;10.228;2023-08-30T03:33:13;14.10;1.00
318;DHT22;146;53.448;10.228;2023-08-30T03:35:49;14.10;1.00
318;DHT22;146;53.448;10.228;2023-08-30T03:38:19;14.10;1.00
318;DHT22;146;53.448;10.228;2023-08-30T03:40:52;14.20;1.00
318;DHT22;146;53.448;10.228;2023-08-30T03:43:19;14.20;1.00
318;DHT22;146;53.448;10.228;2023-08-30T03:45:50;14.10;1.00
318;DHT22;146;53.448;10.228;2023-08-30T03:48:21;14.10;1.00
318;DHT22;146;53.448;10.228;2023-08-30T03:50:50;14.10;1.00
318;DHT22;146;53.448;10.228;2023-08-30T03:53:17;14.10;1.00
318;DHT22;146;53.448;10.228;2023-08-30T03:55:48;14.10;1.00
318;DHT22;146;53.448;10.228;2023-08-30T03:58:21;14.10;1.00
318;DHT22;146;53.448;10.228;2023-08-30T04:00:49;14.10;1.00
318;DHT22;146;53.448;10.228;2023-08-30T04:03:25;14.10;1.00
318;DHT22;146;53.448;10.228;2023-08-30T04:05:55;14.10;1.00
318;DHT22;146;53.448;10.228;2023-08-30T04:08:22;14.10;1.00
318;DHT22;146;53.448;10.228;2023-08-30T04:10:52;14.10;1.00
318;DHT22;146;53.448;10.228;2023-08-30T04:13:25;14.10;1.00
318;DHT22;146;53.448;10.228;2023-08-30T04:16:01;14.20;1.00
318;DHT22;146;53.448;10.228;2023-08-30T04:18:35;14.10;1.00
318;DHT22;146;53.448;10.228;2023-08-30T04:21:05;14.10;1.00
318;DHT22;146;53.448;10.228;2023-08-30T04:23:36;14.10;1.00
318;DHT22;146;53.448;10.228;2023-08-30T04:26:03;14.10;1.00
318;DHT22;146;53.448;10.228;2023-08-30T04:28:33;14.00;1.00
318;DHT22;146;53.448;10.228;2023-08-30T04:31:01;14.10;1.00
318;DHT22;146;53.448;10.228;2023-08-30T04:33:28;14.10;1.00
318;DHT22;146;53.448;10.228;2023-08-30T04:36:00;14.10;1.00
318;DHT22;146;53.448;10.228;2023-08-30T04:38:29;14.10;1.00
318;DHT22;146;53.448;10.228;2023-08-30T04:40:57;14.20;1.00
318;DHT22;146;53.448;10.228;2023-08-30T04:43:37;14.20;1.00
318;DHT22;146;53.448;10.228;2023-08-30T04:46:20;14.20;1.00
318;DHT22;146;53.448;10.228;2023-08-30T04:48:47;14.30;1.00
318;DHT22;146;53.448;10.228;2023-08-30T04:51:14;14.30;1.00
318;DHT22;146;53.448;10.228;2023-08-30T04:53:47;14.30;1.00
318;DHT22;146;53.448;10.228;2023-08-30T04:56:22;14.30;1.00
318;DHT22;146;53.448;10.228;2023-08-30T04:58:49;14.30;1.00
318;DHT22;146;53.448;10.228;2023-08-30T05:01:20;14.30;1.00
318;DHT22;146;53.448;10.228;2023-08-30T05:03:47;14.30;1.00
318;DHT22;146;53.448;10.228;2023-08-30T05:06:13;14.30;1.00
318;DHT22;146;53.448;10.228;2023-08-30T05:08:45;14.40;1.00
318;DHT22;146;53.448;10.228;2023-08-30T05:11:12;14.40;1.00
318;DHT22;146;53.448;10.228;2023-08-30T05:13:45;14.50;1.00
318;DHT22;146;53.448;10.228;2023-08-30T05:16:11;14.60;1.00
318;DHT22;146;53.448;10.228;2023-08-30T05:18:40;14.60;1.00
318;DHT22;146;53.448;10.228;2023-08-30T05:21:06;14.60;1.00
318;DHT22;146;53.448;10.228;2023-08-30T05:23:45;14.70;1.00
318;DHT22;146;53.448;10.228;2023-08-30T05:26:13;14.80;1.00
318;DHT22;146;53.448;10.228;2023-08-30T05:28:39;14.90;1.00
318;DHT22;146;53.448;10.228;2023-08-30T05:31:06;14.90;1.00
318;DHT22;146;53.448;10.228;2023-08-30T05:33:33;15.00;1.00
318;DHT22;146;53.448;10.228;2023-08-30T05:36:09;15.00;1.00
318;DHT22;146;53.448;10.228;2023-08-30T05:38:38;15.10;1.00
318;DHT22;146;53.448;10.228;2023-08-30T05:41:05;15.20;1.00
318;DHT22;146;53.448;10.228;2023-08-30T05:43:32;15.20;1.00
318;DHT22;146;53.448;10.228;2023-08-30T05:45:59;15.20;1.00
318;DHT22;146;53.448;10.228;2023-08-30T05:48:32;15.30;1.00
318;DHT22;146;53.448;10.228;2023-08-30T05:51:00;15.40;1.00
318;DHT22;146;53.448;10.228;2023-08-30T05:53:31;15.40;1.00
318;DHT22;146;53.448;10.228;2023-08-30T05:56:00;15.50;1.00
318;DHT22;146;53.448;10.228;2023-08-30T05:58:30;15.60;1.00
318;DHT22;146;53.448;10.228;2023-08-30T06:01:00;15.70;1.00
318;DHT22;146;53.448;10.228;2023-08-30T06:03:31;15.70;1.00
318;DHT22;146;53.448;10.228;2023-08-30T06:05:58;15.80;1.00
318;DHT22;146;53.448;10.228;2023-08-30T06:08:29;15.90;1.00
318;DHT22;146;53.448;10.228;2023-08-30T06:10:59;16.00;1.00
318;DHT22;146;53.448;10.228;2023-08-30T06:13:29;16.00;1.00
318;DHT22;146;53.448;10.228;2023-08-30T06:15:58;16.10;1.00
318;DHT22;146;53.448;10.228;2023-08-30T06:18:29;16.20;1.00
318;DHT22;146;53.448;10.228;2023-08-30T06:20:58;16.20;1.00
318;DHT22;146;53.448;10.228;2023-08-30T06:23:33;16.20;1.00
318;DHT22;146;53.448;10.228;2023-08-30T06:26:00;16.20;1.00
318;DHT22;146;53.448;10.228;2023-08-30T06:28:31;16.20;1.00
318;DHT22;146;53.448;10.228;2023-08-30T06:31:01;16.20;1.00
318;DHT22;146;53.448;10.228;2023-08-30T06:33:35;16.30;1.00
318;DHT22;146;53.448;10.228;2023-08-30T06:36:04;16.30;1.00
318;DHT22;146;53.448;10.228;2023-08-30T06:38:40;16.30;1.00
318;DHT22;146;53.448;10.228;2023-08-30T06:41:11;16.40;1.00
318;DHT22;146;53.448;10.228;2023-08-30T06:43:40;16.40;1.00
318;DHT22;146;53.448;10.228;2023-08-30T06:46:06;16.40;1.00
318;DHT22;146;53.448;10.228;2023-08-30T06:48:33;16.40;1.00
318;DHT22;146;53.448;10.228;2023-08-30T06:51:00;16.50;1.00
318;DHT22;146;53.448;10.228;2023-08-30T06:53:30;16.60;1.00
318;DHT22;146;53.448;10.228;2023-08-30T06:56:01;16.60;1.00
318;DHT22;146;53.448;10.228;2023-08-30T06:58:31;16.60;1.00
318;DHT22;146;53.448;10.228;2023-08-30T07:00:58;16.60;1.00
318;DHT22;146;53.448;10.228;2023-08-30T07:03:27;16.60;1.00
318;DHT22;146;53.448;10.228;2023-08-30T07:05:54;16.70;1.00
318;DHT22;146;53.448;10.228;2023-08-30T07:08:21;16.80;1.00
318;DHT22;146;53.448;10.228;2023-08-30T07:10:51;16.80;1.00
318;DHT22;146;53.448;10.228;2023-08-30T07:13:22;16.80;1.00
318;DHT22;146;53.448;10.228;2023-08-30T07:15:49;17.00;1.00
318;DHT22;146;53.448;10.228;2023-08-30T07:18:19;17.00;1.00
318;DHT22;146;53.448;10.228;2023-08-30T07:20:49;17.00;1.00
318;DHT22;146;53.448;10.228;2023-08-30T07:23:16;17.10;1.00
318;DHT22;146;53.448;10.228;2023-08-30T07:25:51;17.10;1.00
318;DHT22;146;53.448;10.228;2023-08-30T07:28:22;17.20;1.00
318;DHT22;146;53.448;10.228;2023-08-30T07:31:02;17.20;1.00
318;DHT22;146;53.448;10.228;2023-08-30T07:33:29;17.30;1.00
318;DHT22;146;53.448;10.228;2023-08-30T07:35:56;17.40;1.00
318;DHT22;146;53.448;10.228;2023-08-30T07:38:26;17.40;1.00
318;DHT22;146;53.448;10.228;2023-08-30T07:40:58;17.40;1.00
318;DHT22;146;53.448;10.228;2023-08-30T07:43:26;17.50;1.00
318;DHT22;146;53.448;10.228;2023-08-30T07:46:05;17.50;1.00
318;DHT22;146;53.448;10.228;2023-08-30T07:48:45;17.60;1.00
318;DHT22;146;53.448;10.228;2023-08-30T07:51:12;17.60;1.00
318;DHT22;146;53.448;10.228;2023-08-30T07:53:38;17.70;1.00
318;DHT22;146;53.448;10.228;2023-08-30T07:56:05;17.80;1.00
318;DHT22;146;53.448;10.228;2023-08-30T07:58:34;17.80;1.00
318;DHT22;146;53.448;10.228;2023-08-30T08:01:04;17.90;1.00
318;DHT22;146;53.448;10.228;2023-08-30T08:03:33;17.90;1.00
318;DHT22;146;53.448;10.228;2023-08-30T08:06:09;18.00;1.00
318;DHT22;146;53.448;10.228;2023-08-30T08:08:38;18.10;1.00
318;DHT22;146;53.448;10.228;2023-08-30T08:11:05;18.20;1.00
318;DHT22;146;53.448;10.228;2023-08-30T08:13:33;18.20;1.00
318;DHT22;146;53.448;10.228;2023-08-30T08:16:00;18.20;1.00
318;DHT22;146;53.448;10.228;2023-08-30T08:18:30;18.30;1.00
318;DHT22;146;53.448;10.228;2023-08-30T08:20:57;18.30;1.00
318;DHT22;146;53.448;10.228;2023-08-30T08:23:27;18.30;1.00
318;DHT22;146;53.448;10.228;2023-08-30T08:26:00;18.30;1.00
318;DHT22;146;53.448;10.228;2023-08-30T08:28:33;18.30;1.00
318;DHT22;146;53.448;10.228;2023-08-30T08:31:01;18.40;1.00
318;DHT22;146;53.448;10.228;2023-08-30T08:33:28;18.50;1.00
318;DHT22;146;53.448;10.228;2023-08-30T08:35:55;18.50;1.00
318;DHT22;146;53.448;10.228;2023-08-30T08:38:22;18.50;1.00
318;DHT22;146;53.448;10.228;2023-08-30T08:40:50;18.60;1.00
318;DHT22;146;53.448;10.228;2023-08-30T08:43:19;18.60;1.00
318;DHT22;146;53.448;10.228;2023-08-30T08:45:53;18.70;1.00
318;DHT22;146;53.448;10.228;2023-08-30T08:48:23;18.80;1.00
318;DHT22;146;53.448;10.228;2023-08-30T08:50:51;18.90;1.00
318;DHT22;146;53.448;10.228;2023-08-30T08:53:18;19.00;1.00
318;DHT22;146;53.448;10.228;2023-08-30T08:55:45;19.10;1.00
318;DHT22;146;53.448;10.228;2023-08-30T08:58:13;19.30;1.00
318;DHT22;146;53.448;10.228;2023-08-30T09:00:41;19.40;1.00
318;DHT22;146;53.448;10.228;2023-08-30T09:03:09;19.60;1.00
318;DHT22;146;53.448;10.228;2023-08-30T09:05:39;19.70;1.00
318;DHT22;146;53.448;10.228;2023-08-30T09:08:06;19.70;1.00
318;DHT22;146;53.448;10.228;2023-08-30T09:10:33;19.80;1.00
318;DHT22;146;53.448;10.228;2023-08-30T09:13:00;19.80;1.00
318;DHT22;146;53.448;10.228;2023-08-30T09:15:33;19.90;1.00
318;DHT22;146;53.448;10.228;2023-08-30T09:18:03;20.00;1.00
318;DHT22;146;53.448;10.228;2023-08-30T09:20:36;20.10;1.00
318;DHT22;146;53.448;10.228;2023-08-30T09:23:15;20.00;1.00
318;DHT22;146;53.448;10.228;2023-08-30T09:25:45;20.10;1.00
318;DHT22;146;53.448;10.228;2023-08-30T09:28:21;20.20;1.00
318;DHT22;146;53.448;10.228;2023-08-30T09:30:49;20.40;1.00
318;DHT22;146;53.448;10.228;2023-08-30T09:33:20;20.40;1.00
318;DHT22;146;53.448;10.228;2023-08-30T09:35:53;20.50;1.00
318;DHT22;146;53.448;10.228;2023-08-30T09:38:24;20.60;1.00
318;DHT22;146;53.448;10.228;2023-08-30T09:41:15;20.70;1.00
318;DHT22;146;53.448;10.228;2023-08-30T09:43:49;20.80;1.00
318;DHT22;146;53.448;10.228;2023-08-30T09:46:16;20.90;1.00
318;DHT22;146;53.448;10.228;2023-08-30T09:48:46;20.90;1.00
318;DHT22;146;53.448;10.228;2023-08-30T09:51:13;20.90;1.00
318;DHT22;146;53.448;10.228;2023-08-30T09:53:44;20.90;1.00
318;DHT22;146;53.448;10.228;2023-08-30T09:56:12;20.90;1.00
318;DHT22;146;53.448;10.228;2023-08-30T09:58:41;20.80;1.00
318;DHT22;146;53.448;10.228;2023-08-30T10:01:09;20.90;1.00
318;DHT22;146;53.448;10.228;2023-08-30T10:03:36;21.00;1.00
318;DHT22;146;53.448;10.228;2023-08-30T10:06:07;20.90;1.00
318;DHT22;146;53.448;10.228;2023-08-30T10:08:42;21.00;1.00
318;DHT22;146;53.448;10.228;2023-08-30T10:11:14;21.00;1.00
318;DHT22;146;53.448;10.228;2023-08-30T10:13:48;20.90;1.00
318;DHT22;146;53.448;10.228;2023-08-30T10:16:23;21.00;1.00
318;DHT22;146;53.448;10.228;2023-08-30T10:18:53;21.10;1.00
318;DHT22;146;53.448;10.228;2023-08-30T10:21:22;21.20;1.00
318;DHT22;146;53.448;10.228;2023-08-30T10:23:58;21.20;1.00
318;DHT22;146;53.448;10.228;2023-08-30T10:26:28;21.20;1.00
318;DHT22;146;53.448;10.228;2023-08-30T10:28:59;21.20;1.00
318;DHT22;146;53.448;10.228;2023-08-30T10:31:44;21.30;1.00
318;DHT22;146;53.448;10.228;2023-08-30T10:34:14;21.20;1.00
318;DHT22;146;53.448;10.228;2023-08-30T10:36:59;21.00;1.00
318;DHT22;146;53.448;10.228;2023-08-30T10:39:34;21.10;1.00
318;DHT22;146;53.448;10.228;2023-08-30T10:42:08;20.80;1.00
318;DHT22;146;53.448;10.228;2023-08-30T10:44:47;20.70;1.00
318;DHT22;146;53.448;10.228;2023-08-30T10:47:26;20.70;1.00
318;DHT22;146;53.448;10.228;2023-08-30T10:50:10;20.70;1.00
318;DHT22;146;53.448;10.228;2023-08-30T10:52:38;20.50;1.00
318;DHT22;146;53.448;10.228;2023-08-30T10:55:10;20.50;1.00
318;DHT22;146;53.448;10.228;2023-08-30T10:57:41;20.60;1.00
318;DHT22;146;53.448;10.228;2023-08-30T11:00:19;20.50;1.00
318;DHT22;146;53.448;10.228;2023-08-30T11:02:48;20.50;1.00
318;DHT22;146;53.448;10.228;2023-08-30T11:05:24;20.60;1.00
318;DHT22;146;53.448;10.228;2023-08-30T11:07:51;20.60;1.00
318;DHT22;146;53.448;10.228;2023-08-30T11:10:20;20.50;1.00
318;DHT22;146;53.448;10.228;2023-08-30T11:12:48;20.40;1.00
318;DHT22;146;53.448;10.228;2023-08-30T11:15:16;20.30;1.00
318;DHT22;146;53.448;10.228;2023-08-30T11:17:49;20.50;1.00
318;DHT22;146;53.448;10.228;2023-08-30T11:20:16;20.60;1.00
318;DHT22;146;53.448;10.228;2023-08-30T11:22:46;20.60;1.00
318;DHT22;146;53.448;10.228;2023-08-30T11:25:15;20.50;1.00
318;DHT22;146;53.448;10.228;2023-08-30T11:27:43;20.50;1.00
318;DHT22;146;53.448;10.228;2023-08-30T11:30:11;20.60;1.00
318;DHT22;146;53.448;10.228;2023-08-30T11:32:41;20.80;1.00
318;DHT22;146;53.448;10.228;2023-08-30T11:35:18;20.90;1.00
318;DHT22;146;53.448;10.228;2023-08-30T11:37:50;21.00;1.00
318;DHT22;146;53.448;10.228;2023-08-30T11:40:17;21.00;1.00
318;DHT22;146;53.448;10.228;2023-08-30T11:42:47;21.10;1.00
318;DHT22;146;53.448;10.228;2023-08-30T11:45:14;21.20;1.00
318;DHT22;146;53.448;10.228;2023-08-30T11:47:47;21.30;1.00
318;DHT22;146;53.448;10.228;2023-08-30T11:50:14;21.40;1.00
318;DHT22;146;53.448;10.228;2023-08-30T11:52:42;21.50;1.00
318;DHT22;146;53.448;10.228;2023-08-30T11:55:09;21.60;1.00
318;DHT22;146;53.448;10.228;2023-08-30T11:57:38;21.80;1.00
318;DHT22;146;53.448;10.228;2023-08-30T12:00:19;21.80;1.00
318;DHT22;146;53.448;10.228;2023-08-30T12:02:46;21.80;1.00
318;DHT22;146;53.448;10.228;2023-08-30T12:05:13;21.80;1.00
318;DHT22;146;53.448;10.228;2023-08-30T12:07:41;21.60;1.00
318;DHT22;146;53.448;10.228;2023-08-30T12:10:09;21.60;1.00
318;DHT22;146;53.448;10.228;2023-08-30T12:12:44;21.70;1.00
318;DHT22;146;53.448;10.228;2023-08-30T12:15:12;21.80;1.00
318;DHT22;146;53.448;10.228;2023-08-30T12:17:44;21.80;1.00
318;DHT22;146;53.448;10.228;2023-08-30T12:20:18;21.90;1.00
318;DHT22;146;53.448;10.228;2023-08-30T12:22:49;22.00;1.00
318;DHT22;146;53.448;10.228;2023-08-30T12:25:20;22.10;1.00
318;DHT22;146;53.448;10.228;2023-08-30T12:27:49;22.00;1.00
318;DHT22;146;53.448;10.228;2023-08-30T12:30:16;22.10;1.00
318;DHT22;146;53.448;10.228;2023-08-30T12:33:01;22.10;1.00
318;DHT22;146;53.448;10.228;2023-08-30T12:35:35;22.10;1.00
318;DHT22;146;53.448;10.228;2023-08-30T12:38:01;22.10;1.00
318;DHT22;146;53.448;10.228;2023-08-30T12:40:38;22.10;1.00
318;DHT22;146;53.448;10.228;2023-08-30T12:43:12;22.00;1.00
318;DHT22;146;53.448;10.228;2023-08-30T12:45:45;22.00;1.00
318;DHT22;146;53.448;10.228;2023-08-30T12:48:20;21.90;1.00
318;DHT22;146;53.448;10.228;2023-08-30T12:50:50;21.70;1.00
318;DHT22;146;53.448;10.228;2023-08-30T12:53:17;21.70;1.00
318;DHT22;146;53.448;10.228;2023-08-30T12:55:44;21.60;1.00
318;DHT22;146;53.448;10.228;2023-08-30T12:58:13;21.50;1.00
318;DHT22;146;53.448;10.228;2023-08-30T13:00:49;21.50;1.00
318;DHT22;146;53.448;10.228;2023-08-30T13:03:20;21.50;1.00
318;DHT22;146;53.448;10.228;2023-08-30T13:05:51;21.50;1.00
318;DHT22;146;53.448;10.228;2023-08-30T13:08:19;21.40;1.00
318;DHT22;146;53.448;10.228;2023-08-30T13:10:48;21.40;1.00
318;DHT22;146;53.448;10.228;2023-08-30T13:13:15;21.40;1.00
318;DHT22;146;53.448;10.228;2023-08-30T13:15:47;21.40;1.00
318;DHT22;146;53.448;10.228;2023-08-30T13:18:21;21.40;1.00
318;DHT22;146;53.448;10.228;2023-08-30T13:21:01;21.40;1.00
318;DHT22;146;53.448;10.228;2023-08-30T13:23:29;21.40;1.00
318;DHT22;146;53.448;10.228;2023-08-30T13:25:56;21.40;1.00
318;DHT22;146;53.448;10.228;2023-08-30T13:28:36;21.40;1.00
318;DHT22;146;53.448;10.228;2023-08-30T13:31:06;21.50;1.00
318;DHT22;146;53.448;10.228;2023-08-30T13:33:33;21.40;1.00
318;DHT22;146;53.448;10.228;2023-08-30T13:36:01;21.50;1.00
318;DHT22;146;53.448;10.228;2023-08-30T13:38:29;21.60;1.00
318;DHT22;146;53.448;10.228;2023-08-30T13:41:00;21.60;1.00
318;DHT22;146;53.448;10.228;2023-08-30T13:43:35;21.60;1.00
318;DHT22;146;53.448;10.228;2023-08-30T13:46:13;21.50;1.00
318;DHT22;146;53.448;10.228;2023-08-30T13:48:46;21.50;1.00
318;DHT22;146;53.448;10.228;2023-08-30T13:51:15;21.50;1.00
318;DHT22;146;53.448;10.228;2023-08-30T13:53:50;21.50;1.00
318;DHT22;146;53.448;10.228;2023-08-30T13:56:20;21.50;1.00
318;DHT22;146;53.448;10.228;2023-08-30T13:58:47;21.40;1.00
318;DHT22;146;53.448;10.228;2023-08-30T14:01:14;21.40;1.00
318;DHT22;146;53.448;10.228;2023-08-30T14:03:42;21.40;1.00
318;DHT22;146;53.448;10.228;2023-08-30T14:06:09;21.40;1.00
318;DHT22;146;53.448;10.228;2023-08-30T14:08:55;21.30;1.00
318;DHT22;146;53.448;10.228;2023-08-30T14:11:22;21.40;1.00
318;DHT22;146;53.448;10.228;2023-08-30T14:13:49;21.40;1.00
318;DHT22;146;53.448;10.228;2023-08-30T14:16:18;21.50;1.00
318;DHT22;146;53.448;10.228;2023-08-30T14:18:45;21.50;1.00
318;DHT22;146;53.448;10.228;2023-08-30T14:21:18;21.50;1.00
318;DHT22;146;53.448;10.228;2023-08-30T14:23:48;21.50;1.00
318;DHT22;146;53.448;10.228;2023-08-30T14:26:16;21.60;1.00
318;DHT22;146;53.448;10.228;2023-08-30T14:28:46;21.60;1.00
318;DHT22;146;53.448;10.228;2023-08-30T14:31:15;21.60;1.00
318;DHT22;146;53.448;10.228;2023-08-30T14:33:46;21.60;1.00
318;DHT22;146;53.448;10.228;2023-08-30T14:36:15;21.60;1.00
318;DHT22;146;53.448;10.228;2023-08-30T14:38:42;21.60;1.00
318;DHT22;146;53.448;10.228;2023-08-30T14:41:19;21.60;1.00
318;DHT22;146;53.448;10.228;2023-08-30T14:43:46;21.60;1.00
318;DHT22;146;53.448;10.228;2023-08-30T14:46:13;21.40;1.00
318;DHT22;146;53.448;10.228;2023-08-30T14:48:43;21.40;1.00
318;DHT22;146;53.448;10.228;2023-08-30T14:51:10;21.20;1.00
318;DHT22;146;53.448;10.228;2023-08-30T14:53:37;21.10;1.00
318;DHT22;146;53.448;10.228;2023-08-30T14:56:08;21.10;1.00
318;DHT22;146;53.448;10.228;2023-08-30T14:58:39;21.00;1.00
318;DHT22;146;53.448;10.228;2023-08-30T15:01:09;20.90;1.00
318;DHT22;146;53.448;10.228;2023-08-30T15:03:39;20.90;1.00
318;DHT22;146;53.448;10.228;2023-08-30T15:06:19;20.90;1.00
318;DHT22;146;53.448;10.228;2023-08-30T15:08:45;20.80;1.00
318;DHT22;146;53.448;10.228;2023-08-30T15:11:15;20.90;1.00
318;DHT22;146;53.448;10.228;2023-08-30T15:13:46;20.80;1.00
318;DHT22;146;53.448;10.228;2023-08-30T15:16:13;20.80;1.00
318;DHT22;146;53.448;10.228;2023-08-30T15:18:40;20.70;1.00
318;DHT22;146;53.448;10.228;2023-08-30T15:21:07;20.70;1.00
318;DHT22;146;53.448;10.228;2023-08-30T15:23:38;20.70;1.00
318;DHT22;146;53.448;10.228;2023-08-30T15:26:10;20.70;1.00
318;DHT22;146;53.448;10.228;2023-08-30T15:28:57;20.70;1.00
318;DHT22;146;53.448;10.228;2023-08-30T15:31:33;20.70;1.00
318;DHT22;146;53.448;10.228;2023-08-30T15:34:03;20.60;1.00
318;DHT22;146;53.448;10.228;2023-08-30T15:36:30;20.60;1.00
318;DHT22;146;53.448;10.228;2023-08-30T15:38:59;20.60;1.00
318;DHT22;146;53.448;10.228;2023-08-30T15:41:39;20.60;1.00
318;DHT22;146;53.448;10.228;2023-08-30T15:44:07;20.60;1.00
318;DHT22;146;53.448;10.228;2023-08-30T15:46:37;20.60;1.00
318;DHT22;146;53.448;10.228;2023-08-30T15:49:04;20.50;1.00
318;DHT22;146;53.448;10.228;2023-08-30T15:51:31;20.60;1.00
318;DHT22;146;53.448;10.228;2023-08-30T15:53:58;20.60;1.00
318;DHT22;146;53.448;10.228;2023-08-30T15:56:28;20.60;1.00
318;DHT22;146;53.448;10.228;2023-08-30T15:58:54;20.60;1.00
318;DHT22;146;53.448;10.228;2023-08-30T16:01:23;20.60;1.00
318;DHT22;146;53.448;10.228;2023-08-30T16:03:56;20.60;1.00
318;DHT22;146;53.448;10.228;2023-08-30T16:06:23;20.70;1.00
318;DHT22;146;53.448;10.228;2023-08-30T16:08:50;20.70;1.00
318;DHT22;146;53.448;10.228;2023-08-30T16:11:17;20.60;1.00
318;DHT22;146;53.448;10.228;2023-08-30T16:13:46;20.60;1.00
318;DHT22;146;53.448;10.228;2023-08-30T16:16:27;20.60;1.00
318;DHT22;146;53.448;10.228;2023-08-30T16:18:56;20.50;1.00
318;DHT22;146;53.448;10.228;2023-08-30T16:21:26;20.50;1.00
318;DHT22;146;53.448;10.228;2023-08-30T16:23:56;20.30;1.00
318;DHT22;146;53.448;10.228;2023-08-30T16:26:32;20.40;1.00
318;DHT22;146;53.448;10.228;2023-08-30T16:28:59;20.30;1.00
318;DHT22;146;53.448;10.228;2023-08-30T16:31:37;20.30;1.00
318;DHT22;146;53.448;10.228;2023-08-30T16:34:26;20.30;1.00
318;DHT22;146;53.448;10.228;2023-08-30T16:36:53;20.30;1.00
318;DHT22;146;53.448;10.228;2023-08-30T16:39:26;20.20;1.00
318;DHT22;146;53.448;10.228;2023-08-30T16:41:55;20.10;1.00
318;DHT22;146;53.448;10.228;2023-08-30T16:44:22;20.00;1.00
318;DHT22;146;53.448;10.228;2023-08-30T16:46:51;19.90;1.00
318;DHT22;146;53.448;10.228;2023-08-30T16:49:20;19.90;1.00
318;DHT22;146;53.448;10.228;2023-08-30T16:51:47;19.80;1.00
318;DHT22;146;53.448;10.228;2023-08-30T16:54:14;19.70;1.00
318;DHT22;146;53.448;10.228;2023-08-30T16:56:41;19.70;1.00